createdAt,value
2019-02-23T00:01:22.440Z,7.60
2019-02-23T00:03:51.815Z,7.50
2019-02-23T00:06:29.269Z,7.50
2019-02-23T00:08:52.072Z,7.50
2019-02-23T00:11:21.450Z,7.50
2019-02-23T00:13:51.053Z,7.50
2019-02-23T00:16:20.649Z,7.40
2019-02-23T00:18:49.955Z,7.40
2019-02-23T00:21:19.249Z,7.40
2019-02-23T00:23:48.457Z,7.40
2019-02-23T00:26:17.838Z,7.40
2019-02-23T00:28:47.038Z,7.30
2019-02-23T00:31:16.564Z,7.30
2019-02-23T00:33:46.264Z,7.30
2019-02-23T00:36:15.574Z,7.30
2019-02-23T00:38:45.009Z,7.30
2019-02-23T00:41:14.577Z,7.20
2019-02-23T00:43:43.863Z,7.20
2019-02-23T00:46:13.229Z,7.20
2019-02-23T00:48:42.486Z,7.20
2019-02-23T00:51:11.732Z,7.20
2019-02-23T00:53:41.396Z,7.10
2019-02-23T00:56:10.779Z,7.10
2019-02-23T00:58:40.048Z,7.10
2019-02-23T01:01:09.720Z,7.00
2019-02-23T01:03:39.521Z,7.00
2019-02-23T01:06:09.221Z,7.00
2019-02-23T01:08:38.692Z,7.00
2019-02-23T01:11:08.101Z,6.90
2019-02-23T01:13:37.694Z,6.90
2019-02-23T01:16:06.888Z,6.90
2019-02-23T01:18:36.200Z,6.90
2019-02-23T01:21:05.490Z,6.90
2019-02-23T01:23:34.680Z,6.80
2019-02-23T01:26:04.575Z,6.80
2019-02-23T01:28:33.904Z,6.80
2019-02-23T01:31:03.871Z,6.80
2019-02-23T01:33:33.218Z,6.70
2019-02-23T01:36:03.165Z,6.70
2019-02-23T01:38:32.472Z,6.80
2019-02-23T01:41:01.971Z,6.70
2019-02-23T01:43:31.323Z,6.70
2019-02-23T01:46:00.831Z,6.70
2019-02-23T01:48:30.355Z,6.70
2019-02-23T01:50:59.656Z,6.60
2019-02-23T01:53:29.234Z,6.60
2019-02-23T01:55:58.803Z,6.60
2019-02-23T01:58:28.334Z,6.60
2019-02-23T02:00:58.029Z,6.60
2019-02-23T02:03:27.404Z,6.50
2019-02-23T02:05:56.653Z,6.50
2019-02-23T02:08:26.292Z,6.50
2019-02-23T02:10:55.680Z,6.50
2019-02-23T02:13:25.231Z,6.50
2019-02-23T02:15:54.435Z,6.40
2019-02-23T02:18:24.306Z,6.40
2019-02-23T02:20:53.667Z,6.40
2019-02-23T02:23:22.939Z,6.30
2019-02-23T02:25:52.247Z,6.30
2019-02-23T02:28:21.517Z,6.30
2019-02-23T02:30:51.113Z,6.30
2019-02-23T02:33:20.478Z,6.20
2019-02-23T02:35:50.055Z,6.10
2019-02-23T02:38:19.652Z,6.10
2019-02-23T02:40:48.985Z,6.10
2019-02-23T02:43:18.711Z,6.00
2019-02-23T02:45:48.069Z,6.10
2019-02-23T02:48:17.453Z,6.10
2019-02-23T02:50:46.666Z,6.10
2019-02-23T02:53:15.868Z,6.10
2019-02-23T02:55:45.882Z,6.10
2019-02-23T02:58:15.213Z,6.10
2019-02-23T03:00:44.493Z,6.10
2019-02-23T03:03:14.111Z,6.00
2019-02-23T03:05:43.409Z,6.10
2019-02-23T03:08:13.053Z,6.10
2019-02-23T03:10:42.267Z,6.00
2019-02-23T03:13:11.609Z,6.00
2019-02-23T03:15:40.895Z,6.00
2019-02-23T03:18:10.240Z,6.00
2019-02-23T03:20:39.523Z,6.00
2019-02-23T03:23:08.878Z,6.00
2019-02-23T03:25:39.462Z,6.00
2019-02-23T03:28:08.752Z,6.00
2019-02-23T03:30:38.029Z,6.00
2019-02-23T03:33:07.774Z,6.00
2019-02-23T03:35:37.761Z,6.00
2019-02-23T03:38:07.392Z,6.00
2019-02-23T03:40:37.513Z,6.00
2019-02-23T03:43:06.886Z,6.00
2019-02-23T03:45:36.222Z,6.00
2019-02-23T03:48:05.526Z,6.00
2019-02-23T03:50:35.121Z,6.00
2019-02-23T03:53:04.499Z,6.00
2019-02-23T03:55:34.144Z,5.90
2019-02-23T03:58:03.529Z,5.90
2019-02-23T04:00:32.800Z,5.90
2019-02-23T04:03:02.100Z,5.90
2019-02-23T04:05:31.856Z,6.00
2019-02-23T04:08:01.135Z,5.90
2019-02-23T04:10:30.437Z,5.90
2019-02-23T04:13:00.044Z,6.00
2019-02-23T04:15:29.376Z,5.90
2019-02-23T04:17:59.086Z,5.90
2019-02-23T04:20:28.428Z,5.90
2019-02-23T04:22:57.684Z,5.90
2019-02-23T04:25:26.986Z,5.80
2019-02-23T04:27:56.608Z,5.80
2019-02-23T04:30:25.966Z,5.80
2019-02-23T04:32:55.338Z,5.80
2019-02-23T04:35:24.604Z,5.80
2019-02-23T04:37:54.312Z,5.90
2019-02-23T04:40:24.204Z,5.80
2019-02-23T04:42:53.431Z,5.80
2019-02-23T04:45:22.997Z,5.80
2019-02-23T04:47:52.303Z,5.80
2019-02-23T04:50:21.627Z,5.80
2019-02-23T04:52:50.917Z,5.80
2019-02-23T04:55:20.519Z,5.80
2019-02-23T04:57:49.867Z,5.80
2019-02-23T05:00:19.045Z,5.80
2019-02-23T05:02:48.345Z,5.70
2019-02-23T05:05:17.683Z,5.70
2019-02-23T05:07:46.984Z,5.70
2019-02-23T05:10:16.684Z,5.70
2019-02-23T05:12:45.965Z,5.70
2019-02-23T05:15:15.303Z,5.70
2019-02-23T05:17:44.681Z,5.60
2019-02-23T05:20:14.259Z,5.70
2019-02-23T05:22:43.627Z,5.60
2019-02-23T05:25:12.932Z,5.60
2019-02-23T05:27:42.203Z,5.60
2019-02-23T05:30:11.942Z,5.50
2019-02-23T05:32:41.333Z,5.50
2019-02-23T05:35:12.039Z,5.40
2019-02-23T05:37:41.309Z,5.40
2019-02-23T05:40:11.303Z,5.40
2019-02-23T05:42:40.569Z,5.40
2019-02-23T05:45:09.939Z,5.30
2019-02-23T05:47:39.173Z,5.30
2019-02-23T05:50:08.763Z,5.30
2019-02-23T05:52:38.127Z,5.30
2019-02-23T05:55:07.656Z,5.30
2019-02-23T05:57:37.272Z,5.30
2019-02-23T06:00:07.648Z,5.20
2019-02-23T06:02:37.032Z,5.20
2019-02-23T06:05:07.173Z,5.20
2019-02-23T06:07:36.563Z,5.20
2019-02-23T06:10:07.932Z,5.10
2019-02-23T06:12:37.613Z,5.10
2019-02-23T06:15:09.519Z,5.00
2019-02-23T06:17:38.811Z,5.00
2019-02-23T06:20:09.727Z,5.00
2019-02-23T06:22:39.430Z,5.00
2019-02-23T06:25:09.759Z,5.00
2019-02-23T06:27:39.078Z,4.90
2019-02-23T06:30:10.225Z,4.90
2019-02-23T06:32:39.532Z,4.90
2019-02-23T06:35:09.425Z,4.90
2019-02-23T06:37:39.117Z,4.90
2019-02-23T06:40:08.861Z,4.80
2019-02-23T06:42:38.237Z,4.80
2019-02-23T06:45:08.414Z,4.80
2019-02-23T06:47:37.736Z,4.80
2019-02-23T06:50:07.481Z,4.80
2019-02-23T06:52:36.837Z,4.80
2019-02-23T06:55:06.217Z,4.80
2019-02-23T06:57:36.109Z,4.80
2019-02-23T07:00:06.460Z,4.80
2019-02-23T07:02:35.834Z,4.80
2019-02-23T07:05:05.625Z,4.80
2019-02-23T07:07:34.914Z,4.80
2019-02-23T07:10:04.473Z,4.80
2019-02-23T07:12:33.994Z,4.80
2019-02-23T07:15:03.335Z,4.80
2019-02-23T07:17:32.569Z,4.80
2019-02-23T07:20:01.769Z,4.80
2019-02-23T07:22:33.529Z,4.80
2019-02-23T07:25:02.292Z,4.80
2019-02-23T07:27:31.877Z,4.90
2019-02-23T07:30:01.428Z,4.80
2019-02-23T07:32:30.803Z,4.90
2019-02-23T07:35:03.708Z,4.90
2019-02-23T07:37:33.058Z,4.90
2019-02-23T07:40:05.210Z,5.00
2019-02-23T07:42:34.473Z,5.00
2019-02-23T07:45:04.519Z,5.00
2019-02-23T07:47:33.883Z,5.00
2019-02-23T07:50:03.182Z,5.00
2019-02-23T07:52:32.848Z,5.10
2019-02-23T07:55:02.165Z,5.20
2019-02-23T07:57:31.999Z,5.20
2019-02-23T08:00:01.341Z,5.30
2019-02-23T08:02:30.713Z,5.30
2019-02-23T08:05:01.670Z,5.30
2019-02-23T08:07:31.423Z,5.40
2019-02-23T08:10:31.994Z,5.50
2019-02-23T08:13:01.255Z,5.50
2019-02-23T08:15:30.600Z,5.60
2019-02-23T08:18:00.009Z,5.60
2019-02-23T08:20:30.290Z,5.70
2019-02-23T08:22:59.962Z,5.70
2019-02-23T08:25:29.395Z,5.70
2019-02-23T08:27:58.747Z,5.80
2019-02-23T08:30:28.032Z,5.90
2019-02-23T08:32:57.252Z,5.90
2019-02-23T08:35:26.514Z,6.00
2019-02-23T08:37:56.141Z,6.10
2019-02-23T08:40:25.479Z,6.10
2019-02-23T08:42:54.660Z,6.20
2019-02-23T08:45:28.339Z,6.20
2019-02-23T08:47:57.683Z,6.30
2019-02-23T08:50:28.425Z,6.30
2019-02-23T08:52:57.634Z,6.40
2019-02-23T08:55:27.035Z,6.40
2019-02-23T08:57:57.023Z,6.50
2019-02-23T09:00:26.380Z,6.50
2019-02-23T09:02:55.676Z,6.60
2019-02-23T09:05:25.852Z,6.60
2019-02-23T09:07:55.562Z,6.70
2019-02-23T09:10:24.945Z,6.70
2019-02-23T09:12:54.195Z,6.80
2019-02-23T09:15:23.387Z,6.80
2019-02-23T09:17:53.036Z,7.00
2019-02-23T09:20:29.303Z,7.00
2019-02-23T09:23:00.168Z,7.10
2019-02-23T09:25:25.112Z,7.20
2019-02-23T09:27:56.826Z,7.30
2019-02-23T09:30:26.431Z,7.40
2019-02-23T09:32:55.663Z,7.40
2019-02-23T09:35:25.004Z,7.50
2019-02-23T09:37:55.044Z,7.60
2019-02-23T09:40:24.352Z,7.70
2019-02-23T09:42:53.565Z,7.70
2019-02-23T09:45:23.260Z,7.80
2019-02-23T09:47:52.808Z,7.90
2019-02-23T09:50:22.131Z,8.00
2019-02-23T09:52:51.401Z,8.10
2019-02-23T09:55:20.688Z,8.20
2019-02-23T09:57:50.041Z,8.30
2019-02-23T10:00:19.384Z,8.50
2019-02-23T10:02:48.697Z,8.50
2019-02-23T10:05:17.998Z,8.60
2019-02-23T10:07:47.956Z,8.70
2019-02-23T10:10:17.572Z,8.80
2019-02-23T10:12:47.253Z,8.90
2019-02-23T10:15:16.601Z,9.00
2019-02-23T10:17:48.488Z,9.00
2019-02-23T10:20:17.682Z,9.10
2019-02-23T10:22:47.250Z,9.20
2019-02-23T10:25:16.709Z,9.30
2019-02-23T10:27:45.981Z,9.40
2019-02-23T10:30:15.946Z,9.50
2019-02-23T10:32:45.294Z,9.50
2019-02-23T10:35:18.020Z,9.70
2019-02-23T10:37:47.404Z,9.80
2019-02-23T10:40:17.166Z,9.90
2019-02-23T10:42:48.274Z,10.00
2019-02-23T10:45:21.076Z,10.10
2019-02-23T10:47:50.431Z,10.30
2019-02-23T10:50:22.478Z,10.40
2019-02-23T10:52:52.157Z,10.40
2019-02-23T10:55:23.876Z,10.40
2019-02-23T10:57:53.497Z,10.60
2019-02-23T11:00:23.832Z,10.60
2019-02-23T11:02:53.069Z,10.80
2019-02-23T11:05:22.536Z,10.90
2019-02-23T11:07:51.948Z,11.00
2019-02-23T11:10:25.411Z,11.10
2019-02-23T11:12:55.380Z,11.20
2019-02-23T11:15:28.786Z,11.30
2019-02-23T11:17:58.169Z,11.40
2019-02-23T11:20:31.868Z,11.60
2019-02-23T11:23:01.214Z,11.70
2019-02-23T11:25:30.900Z,11.80
2019-02-23T11:28:00.457Z,11.90
2019-02-23T11:30:29.869Z,12.00
2019-02-23T11:33:01.104Z,12.10
2019-02-23T11:35:30.579Z,12.20
2019-02-23T11:37:59.818Z,12.30
2019-02-23T11:40:29.202Z,12.30
2019-02-23T11:42:58.951Z,12.40
2019-02-23T11:45:30.828Z,12.60
2019-02-23T11:47:59.313Z,12.60
2019-02-23T11:50:28.996Z,12.80
2019-02-23T11:52:58.598Z,12.90
2019-02-23T11:55:28.187Z,13.00
2019-02-23T11:57:57.574Z,13.10
2019-02-23T12:00:26.981Z,12.80
2019-02-23T12:02:58.786Z,12.80
2019-02-23T12:05:28.125Z,12.80
2019-02-23T12:07:57.473Z,12.90
2019-02-23T12:10:26.878Z,12.90
2019-02-23T12:12:58.733Z,13.00
2019-02-23T12:15:30.875Z,12.90
2019-02-23T12:18:00.093Z,13.10
2019-02-23T12:20:30.077Z,13.30
2019-02-23T12:22:59.769Z,13.30
2019-02-23T12:25:29.125Z,13.40
2019-02-23T12:27:58.511Z,13.50
2019-02-23T12:30:27.858Z,13.70
2019-02-23T12:32:57.535Z,13.70
2019-02-23T12:35:26.919Z,13.80
2019-02-23T12:37:56.713Z,13.90
2019-02-23T12:40:26.067Z,13.90
2019-02-23T12:42:55.526Z,14.10
2019-02-23T12:45:24.999Z,14.30
2019-02-23T12:47:54.911Z,14.30
2019-02-23T12:50:26.909Z,14.30
2019-02-23T12:52:59.891Z,14.20
2019-02-23T12:55:30.728Z,14.20
2019-02-23T12:58:00.602Z,14.40
2019-02-23T13:00:30.026Z,14.50
2019-02-23T13:02:59.372Z,14.50
2019-02-23T13:05:31.442Z,14.60
2019-02-23T13:08:01.162Z,14.80
2019-02-23T13:10:32.479Z,14.80
2019-02-23T13:13:21.294Z,14.70
2019-02-23T13:16:10.506Z,14.60
2019-02-23T13:19:23.945Z,14.40
2019-02-23T13:22:39.734Z,14.70
2019-02-23T13:25:39.070Z,14.90
2019-02-23T13:28:38.754Z,14.80
2019-02-23T13:31:23.416Z,14.70
2019-02-23T13:34:49.926Z,14.50
2019-02-23T13:38:00.561Z,14.40
2019-02-23T13:41:17.396Z,14.70
2019-02-23T13:44:30.418Z,14.90
2019-02-23T13:47:09.969Z,14.80
2019-02-23T13:50:35.446Z,14.90
2019-02-23T13:53:30.130Z,15.00
2019-02-23T13:56:31.432Z,14.90
2019-02-23T13:59:57.018Z,14.40
2019-02-23T14:03:09.636Z,14.10
2019-02-23T14:06:09.656Z,14.10
2019-02-23T14:09:12.462Z,14.30
2019-02-23T14:12:12.826Z,14.10
2019-02-23T14:15:38.390Z,14.00
2019-02-23T14:19:04.988Z,14.10
2019-02-23T14:22:13.842Z,14.30
2019-02-23T14:25:23.466Z,14.50
2019-02-23T14:28:09.363Z,14.50
2019-02-23T14:31:44.153Z,14.30
2019-02-23T14:34:49.280Z,14.10
2019-02-23T14:37:45.671Z,13.80
2019-02-23T14:40:41.570Z,13.80
2019-02-23T14:43:56.712Z,13.90
2019-02-23T14:46:46.229Z,14.00
2019-02-23T14:50:02.636Z,13.80
2019-02-23T14:52:57.564Z,13.80
2019-02-23T14:56:00.259Z,13.80
2019-02-23T14:59:01.868Z,13.90
2019-02-23T15:01:51.276Z,13.90
2019-02-23T15:04:54.179Z,13.90
2019-02-23T15:08:10.491Z,14.10
2019-02-23T15:11:30.056Z,14.10
2019-02-23T15:14:35.632Z,14.00
2019-02-23T15:17:42.961Z,14.00
2019-02-23T15:20:44.039Z,14.00
2019-02-23T15:23:30.108Z,13.90
2019-02-23T15:26:41.152Z,13.90
2019-02-23T15:29:46.479Z,13.90
2019-02-23T15:32:28.152Z,13.80
2019-02-23T15:35:28.234Z,13.80
2019-02-23T15:38:24.838Z,13.80
2019-02-23T15:41:35.552Z,13.80
2019-02-23T15:44:42.112Z,13.90
2019-02-23T15:47:37.627Z,13.80
2019-02-23T15:50:12.886Z,13.70
2019-02-23T15:52:38.769Z,13.60
2019-02-23T15:55:08.438Z,13.60
2019-02-23T15:57:37.770Z,13.60
2019-02-23T16:00:07.589Z,13.50
2019-02-23T16:02:36.909Z,13.50
2019-02-23T16:05:06.625Z,13.40
2019-02-23T16:07:36.303Z,13.40
2019-02-23T16:10:06.064Z,13.40
2019-02-23T16:12:36.226Z,13.40
2019-02-23T16:15:05.924Z,13.40
2019-02-23T16:17:35.943Z,13.30
2019-02-23T16:20:07.601Z,13.20
2019-02-23T16:22:37.827Z,13.00
2019-02-23T16:25:07.317Z,12.90
2019-02-23T16:27:38.591Z,12.90
2019-02-23T16:30:08.078Z,12.80
2019-02-23T16:32:37.365Z,12.70
2019-02-23T16:35:06.811Z,12.50
2019-02-23T16:37:36.385Z,12.50
2019-02-23T16:40:05.984Z,12.40
2019-02-23T16:42:35.743Z,12.30
2019-02-23T16:45:05.700Z,12.20
2019-02-23T16:47:34.993Z,12.00
2019-02-23T16:50:04.430Z,12.00
2019-02-23T16:52:33.700Z,11.80
2019-02-23T16:55:03.038Z,11.80
2019-02-23T16:57:32.780Z,11.70
2019-02-23T17:00:02.231Z,11.70
2019-02-23T17:02:32.247Z,11.60
2019-02-23T17:05:05.106Z,11.60
2019-02-23T17:07:34.472Z,11.50
2019-02-23T17:10:03.919Z,11.50
2019-02-23T17:12:33.311Z,11.40
2019-02-23T17:15:02.581Z,11.30
2019-02-23T17:17:32.248Z,11.20
2019-02-23T17:20:01.694Z,11.20
2019-02-23T17:22:31.065Z,11.10
2019-02-23T17:25:00.461Z,11.00
2019-02-23T17:27:36.166Z,10.90
2019-02-23T17:30:01.139Z,10.90
2019-02-23T17:32:30.509Z,10.80
2019-02-23T17:34:59.919Z,10.70
2019-02-23T17:37:29.764Z,10.60
2019-02-23T17:39:59.442Z,10.60
2019-02-23T17:42:28.811Z,10.50
2019-02-23T17:44:58.098Z,10.50
2019-02-23T17:47:27.806Z,10.40
2019-02-23T17:49:57.370Z,10.30
2019-02-23T17:52:26.672Z,10.20
2019-02-23T17:54:58.171Z,10.20
2019-02-23T17:57:28.270Z,10.10
2019-02-23T17:59:57.823Z,10.00
2019-02-23T18:02:27.143Z,10.00
2019-02-23T18:04:56.544Z,9.90
2019-02-23T18:07:29.270Z,9.80
2019-02-23T18:09:58.888Z,9.80
2019-02-23T18:12:29.699Z,9.80
2019-02-23T18:14:59.185Z,9.70
2019-02-23T18:17:28.624Z,9.60
2019-02-23T18:19:58.249Z,9.60
2019-02-23T18:22:27.917Z,9.50
2019-02-23T18:24:57.146Z,9.50
2019-02-23T18:27:26.672Z,9.40
2019-02-23T18:29:56.035Z,9.40
2019-02-23T18:32:25.415Z,9.40
2019-02-23T18:34:54.776Z,9.30
2019-02-23T18:37:24.173Z,9.40
2019-02-23T18:39:53.647Z,9.30
2019-02-23T18:42:23.081Z,9.40
2019-02-23T18:44:52.301Z,9.30
2019-02-23T18:47:23.182Z,9.40
2019-02-23T18:49:52.926Z,9.40
2019-02-23T18:52:22.953Z,9.30
2019-02-23T18:54:55.872Z,9.30
2019-02-23T18:57:25.200Z,9.30
2019-02-23T18:59:54.569Z,9.30
2019-02-23T19:02:23.868Z,9.30
2019-02-23T19:04:54.189Z,9.20
2019-02-23T19:07:23.555Z,9.20
2019-02-23T19:09:55.969Z,9.20
2019-02-23T19:12:25.289Z,9.10
2019-02-23T19:14:54.600Z,9.10
2019-02-23T19:17:23.867Z,9.00
2019-02-23T19:19:53.229Z,9.00
2019-02-23T19:22:22.689Z,8.90
2019-02-23T19:24:52.036Z,8.90
2019-02-23T19:27:21.802Z,8.90
2019-02-23T19:29:51.317Z,8.80
2019-02-23T19:32:23.157Z,8.80
2019-02-23T19:34:57.102Z,8.70
2019-02-23T19:37:26.481Z,8.70
2019-02-23T19:39:56.173Z,8.70
2019-02-23T19:42:25.670Z,8.60
2019-02-23T19:44:57.812Z,8.60
2019-02-23T19:47:33.096Z,8.50
2019-02-23T19:50:09.606Z,8.50
2019-02-23T19:52:38.843Z,8.50
2019-02-23T19:55:09.801Z,8.40
2019-02-23T19:57:39.276Z,8.40
2019-02-23T20:00:09.567Z,8.30
2019-02-23T20:02:39.754Z,8.20
2019-02-23T20:05:09.766Z,8.20
2019-02-23T20:07:39.098Z,8.20
2019-02-23T20:10:09.670Z,8.10
2019-02-23T20:12:38.944Z,8.10
2019-02-23T20:15:08.336Z,8.00
2019-02-23T20:17:38.825Z,8.00
2019-02-23T20:20:08.806Z,7.90
2019-02-23T20:22:38.243Z,7.90
2019-02-23T20:25:07.955Z,7.90
2019-02-23T20:27:37.318Z,7.90
2019-02-23T20:30:07.442Z,7.80
2019-02-23T20:32:36.904Z,7.70
2019-02-23T20:35:06.973Z,7.60
2019-02-23T20:37:36.380Z,7.60
2019-02-23T20:40:26.884Z,7.50
2019-02-23T20:42:56.620Z,7.50
2019-02-23T20:45:25.978Z,7.40
2019-02-23T20:47:55.627Z,7.40
2019-02-23T20:50:25.066Z,7.40
2019-02-23T20:52:54.613Z,7.30
2019-02-23T20:55:24.060Z,7.20
2019-02-23T20:57:53.950Z,7.20
2019-02-23T21:00:23.313Z,7.10
2019-02-23T21:02:52.680Z,7.10
2019-02-23T21:05:22.097Z,7.00
2019-02-23T21:07:51.448Z,7.00
2019-02-23T21:10:20.836Z,7.00
2019-02-23T21:12:50.621Z,7.00
2019-02-23T21:15:20.197Z,7.00
2019-02-23T21:17:49.568Z,6.90
2019-02-23T21:20:19.306Z,6.90
2019-02-23T21:22:48.640Z,6.90
2019-02-23T21:25:18.288Z,6.90
2019-02-23T21:27:47.616Z,6.90
2019-02-23T21:30:17.193Z,6.90
2019-02-23T21:32:46.456Z,6.90
2019-02-23T21:35:16.451Z,6.80
2019-02-23T21:37:48.593Z,6.80
2019-02-23T21:40:17.939Z,6.80
2019-02-23T21:42:47.271Z,6.80
2019-02-23T21:45:16.623Z,6.70
2019-02-23T21:47:46.219Z,6.70
2019-02-23T21:50:15.909Z,6.70
2019-02-23T21:52:47.404Z,6.70
2019-02-23T21:55:16.485Z,6.70
2019-02-23T21:57:45.762Z,6.60
2019-02-23T22:00:15.034Z,6.60
2019-02-23T22:02:44.295Z,6.60
2019-02-23T22:05:13.605Z,6.50
2019-02-23T22:07:43.185Z,6.40
2019-02-23T22:10:12.786Z,6.40
2019-02-23T22:12:42.111Z,6.40
2019-02-23T22:15:11.537Z,6.30
2019-02-23T22:17:40.840Z,6.30
2019-02-23T22:20:10.142Z,6.40
2019-02-23T22:22:39.898Z,6.40
2019-02-23T22:25:09.543Z,6.40
2019-02-23T22:27:39.460Z,6.50
2019-02-23T22:30:08.875Z,6.40
2019-02-23T22:32:38.571Z,6.50
2019-02-23T22:35:07.925Z,6.50
2019-02-23T22:37:37.506Z,6.50
2019-02-23T22:40:07.048Z,6.50
2019-02-23T22:42:36.543Z,6.50
2019-02-23T22:45:06.627Z,6.50
2019-02-23T22:47:36.197Z,6.50
2019-02-23T22:50:05.780Z,6.50
2019-02-23T22:52:35.055Z,6.50
2019-02-23T22:55:04.781Z,6.40
2019-02-23T22:57:40.177Z,6.40
2019-02-23T23:00:06.331Z,6.40
2019-02-23T23:02:35.663Z,6.30
2019-02-23T23:05:05.345Z,6.30
2019-02-23T23:07:34.745Z,6.30
2019-02-23T23:10:04.629Z,6.30
2019-02-23T23:12:34.009Z,6.30
2019-02-23T23:15:03.270Z,6.30
2019-02-23T23:17:32.508Z,6.30
2019-02-23T23:20:02.181Z,6.20
2019-02-23T23:22:31.654Z,6.20
2019-02-23T23:25:01.029Z,6.20
2019-02-23T23:27:30.710Z,6.20
2019-02-23T23:30:00.089Z,6.10
2019-02-23T23:32:29.771Z,6.10
2019-02-23T23:34:59.099Z,6.10
2019-02-23T23:37:28.453Z,6.10
2019-02-23T23:39:58.104Z,6.00
2019-02-23T23:42:27.390Z,6.10
2019-02-23T23:44:56.612Z,6.00
2019-02-23T23:47:25.883Z,5.90
2019-02-23T23:49:55.296Z,5.90
2019-02-23T23:52:24.992Z,5.80
2019-02-23T23:54:54.247Z,5.80
2019-02-23T23:57:23.468Z,5.80
2019-02-23T23:59:52.736Z,5.80
